sensor_id;sensor_type;location;lat;lon;timestamp;P1;durP1;ratioP1;P2;durP2;ratioP2
19173;SDS011;9719;49.322;8.536;2023-04-10T00:01:46;3.07;;;2.80;;
19173;SDS011;9719;49.322;8.536;2023-04-10T00:06:49;5.73;;;2.77;;
19173;SDS011;9719;49.322;8.536;2023-04-10T00:11:51;3.33;;;2.20;;
19173;SDS011;9719;49.322;8.536;2023-04-10T00:16:53;3.17;;;2.37;;
19173;SDS011;9719;49.322;8.536;2023-04-10T00:21:56;2.03;;;1.93;;
19173;SDS011;9719;49.322;8.536;2023-04-10T00:26:57;4.68;;;3.03;;
19173;SDS011;9719;49.322;8.536;2023-04-10T00:32:00;4.97;;;3.00;;
19173;SDS011;9719;49.322;8.536;2023-04-10T00:37:03;2.07;;;1.97;;
19173;SDS011;9719;49.322;8.536;2023-04-10T00:42:05;3.13;;;2.80;;
19173;SDS011;9719;49.322;8.536;2023-04-10T00:47:09;3.23;;;2.93;;
19173;SDS011;9719;49.322;8.536;2023-04-10T00:52:13;3.10;;;2.55;;
19173;SDS011;9719;49.322;8.536;2023-04-10T00:57:15;2.72;;;2.35;;
19173;SDS011;9719;49.322;8.536;2023-04-10T01:02:17;3.87;;;3.20;;
19173;SDS011;9719;49.322;8.536;2023-04-10T01:07:24;3.97;;;3.07;;
19173;SDS011;9719;49.322;8.536;2023-04-10T01:12:42;3.30;;;2.70;;
19173;SDS011;9719;49.322;8.536;2023-04-10T01:17:55;5.55;;;2.88;;
19173;SDS011;9719;49.322;8.536;2023-04-10T01:23:16;3.28;;;3.08;;
19173;SDS011;9719;49.322;8.536;2023-04-10T01:28:50;3.80;;;2.58;;
19173;SDS011;9719;49.322;8.536;2023-04-10T01:33:56;2.90;;;2.47;;
19173;SDS011;9719;49.322;8.536;2023-04-10T01:39:00;3.42;;;3.10;;
19173;SDS011;9719;49.322;8.536;2023-04-10T01:44:05;2.97;;;2.75;;
19173;SDS011;9719;49.322;8.536;2023-04-10T01:49:08;4.05;;;3.47;;
19173;SDS011;9719;49.322;8.536;2023-04-10T01:54:10;3.00;;;2.47;;
19173;SDS011;9719;49.322;8.536;2023-04-10T01:59:14;3.45;;;2.38;;
19173;SDS011;9719;49.322;8.536;2023-04-10T02:04:16;4.00;;;3.07;;
19173;SDS011;9719;49.322;8.536;2023-04-10T02:09:18;2.37;;;2.13;;
19173;SDS011;9719;49.322;8.536;2023-04-10T02:14:26;2.97;;;2.73;;
19173;SDS011;9719;49.322;8.536;2023-04-10T02:19:29;4.57;;;3.00;;
19173;SDS011;9719;49.322;8.536;2023-04-10T02:24:32;2.50;;;2.30;;
19173;SDS011;9719;49.322;8.536;2023-04-10T02:29:36;2.75;;;2.55;;
19173;SDS011;9719;49.322;8.536;2023-04-10T02:34:38;3.53;;;2.83;;
19173;SDS011;9719;49.322;8.536;2023-04-10T02:39:40;3.43;;;2.83;;
19173;SDS011;9719;49.322;8.536;2023-04-10T02:44:43;3.13;;;2.73;;
19173;SDS011;9719;49.322;8.536;2023-04-10T02:49:45;3.10;;;2.90;;
19173;SDS011;9719;49.322;8.536;2023-04-10T02:54:47;3.83;;;2.60;;
19173;SDS011;9719;49.322;8.536;2023-04-10T02:59:50;2.77;;;2.60;;
19173;SDS011;9719;49.322;8.536;2023-04-10T03:04:52;3.50;;;2.77;;
19173;SDS011;9719;49.322;8.536;2023-04-10T03:09:54;2.97;;;2.67;;
19173;SDS011;9719;49.322;8.536;2023-04-10T03:14:57;2.95;;;2.58;;
19173;SDS011;9719;49.322;8.536;2023-04-10T03:19:59;3.20;;;2.73;;
19173;SDS011;9719;49.322;8.536;2023-04-10T03:25:01;2.47;;;2.27;;
19173;SDS011;9719;49.322;8.536;2023-04-10T03:30:04;5.30;;;3.38;;
19173;SDS011;9719;49.322;8.536;2023-04-10T03:35:07;3.23;;;2.53;;
19173;SDS011;9719;49.322;8.536;2023-04-10T03:40:11;2.67;;;2.47;;
19173;SDS011;9719;49.322;8.536;2023-04-10T03:45:14;4.03;;;3.70;;
19173;SDS011;9719;49.322;8.536;2023-04-10T03:50:16;3.77;;;3.37;;
19173;SDS011;9719;49.322;8.536;2023-04-10T03:55:18;4.03;;;3.40;;
19173;SDS011;9719;49.322;8.536;2023-04-10T04:00:23;2.83;;;2.57;;
19173;SDS011;9719;49.322;8.536;2023-04-10T04:05:25;3.10;;;2.83;;
19173;SDS011;9719;49.322;8.536;2023-04-10T04:10:27;2.93;;;2.73;;
19173;SDS011;9719;49.322;8.536;2023-04-10T04:15:30;3.03;;;2.73;;
19173;SDS011;9719;49.322;8.536;2023-04-10T04:20:31;2.60;;;2.30;;
19173;SDS011;9719;49.322;8.536;2023-04-10T04:25:33;2.77;;;2.30;;
19173;SDS011;9719;49.322;8.536;2023-04-10T04:30:36;4.57;;;4.20;;
19173;SDS011;9719;49.322;8.536;2023-04-10T04:35:38;3.37;;;2.83;;
19173;SDS011;9719;49.322;8.536;2023-04-10T04:40:39;3.03;;;2.50;;
19173;SDS011;9719;49.322;8.536;2023-04-10T04:45:42;2.33;;;2.23;;
19173;SDS011;9719;49.322;8.536;2023-04-10T04:50:44;3.00;;;2.80;;
19173;SDS011;9719;49.322;8.536;2023-04-10T04:55:45;3.10;;;2.70;;
19173;SDS011;9719;49.322;8.536;2023-04-10T05:00:48;3.10;;;2.90;;
19173;SDS011;9719;49.322;8.536;2023-04-10T05:05:51;3.13;;;2.80;;
19173;SDS011;9719;49.322;8.536;2023-04-10T05:10:53;2.53;;;2.27;;
19173;SDS011;9719;49.322;8.536;2023-04-10T05:15:56;3.30;;;2.97;;
19173;SDS011;9719;49.322;8.536;2023-04-10T05:20:58;4.97;;;3.70;;
19173;SDS011;9719;49.322;8.536;2023-04-10T05:25:59;4.33;;;2.60;;
19173;SDS011;9719;49.322;8.536;2023-04-10T05:31:02;3.00;;;2.63;;
19173;SDS011;9719;49.322;8.536;2023-04-10T05:36:04;5.30;;;3.37;;
19173;SDS011;9719;49.322;8.536;2023-04-10T05:41:06;4.03;;;2.87;;
19173;SDS011;9719;49.322;8.536;2023-04-10T05:46:09;2.57;;;2.27;;
19173;SDS011;9719;49.322;8.536;2023-04-10T05:51:11;3.03;;;2.73;;
19173;SDS011;9719;49.322;8.536;2023-04-10T05:56:13;7.63;;;2.50;;
19173;SDS011;9719;49.322;8.536;2023-04-10T06:01:16;4.40;;;3.00;;
19173;SDS011;9719;49.322;8.536;2023-04-10T06:06:19;4.50;;;2.87;;
19173;SDS011;9719;49.322;8.536;2023-04-10T06:11:21;4.65;;;2.55;;
19173;SDS011;9719;49.322;8.536;2023-04-10T06:16:24;2.83;;;2.40;;
19173;SDS011;9719;49.322;8.536;2023-04-10T06:21:26;3.53;;;1.90;;
19173;SDS011;9719;49.322;8.536;2023-04-10T06:26:27;2.67;;;2.47;;
19173;SDS011;9719;49.322;8.536;2023-04-10T06:31:32;2.67;;;1.80;;
19173;SDS011;9719;49.322;8.536;2023-04-10T06:36:34;4.30;;;2.40;;
19173;SDS011;9719;49.322;8.536;2023-04-10T06:41:36;2.25;;;2.08;;
19173;SDS011;9719;49.322;8.536;2023-04-10T06:46:39;3.72;;;2.72;;
19173;SDS011;9719;49.322;8.536;2023-04-10T06:51:40;2.38;;;2.17;;
19173;SDS011;9719;49.322;8.536;2023-04-10T06:56:43;4.13;;;2.60;;
19173;SDS011;9719;49.322;8.536;2023-04-10T07:01:46;3.70;;;2.92;;
19173;SDS011;9719;49.322;8.536;2023-04-10T07:06:47;4.28;;;2.33;;
19173;SDS011;9719;49.322;8.536;2023-04-10T07:11:49;3.30;;;3.00;;
19173;SDS011;9719;49.322;8.536;2023-04-10T07:16:52;3.00;;;2.70;;
19173;SDS011;9719;49.322;8.536;2023-04-10T07:21:54;2.83;;;2.53;;
19173;SDS011;9719;49.322;8.536;2023-04-10T07:26:55;3.85;;;3.40;;
19173;SDS011;9719;49.322;8.536;2023-04-10T07:31:58;2.28;;;2.10;;
19173;SDS011;9719;49.322;8.536;2023-04-10T07:37:00;3.10;;;2.60;;
19173;SDS011;9719;49.322;8.536;2023-04-10T07:42:02;3.35;;;3.05;;
19173;SDS011;9719;49.322;8.536;2023-04-10T07:47:05;2.90;;;2.42;;
19173;SDS011;9719;49.322;8.536;2023-04-10T07:52:06;2.47;;;2.28;;
19173;SDS011;9719;49.322;8.536;2023-04-10T07:57:08;2.13;;;2.00;;
19173;SDS011;9719;49.322;8.536;2023-04-10T08:02:11;2.58;;;2.22;;
19173;SDS011;9719;49.322;8.536;2023-04-10T08:07:13;2.58;;;2.00;;
19173;SDS011;9719;49.322;8.536;2023-04-10T08:12:14;3.03;;;2.35;;
19173;SDS011;9719;49.322;8.536;2023-04-10T08:17:18;3.42;;;2.22;;
19173;SDS011;9719;49.322;8.536;2023-04-10T08:22:19;1.95;;;1.85;;
19173;SDS011;9719;49.322;8.536;2023-04-10T08:27:21;3.67;;;2.85;;
19173;SDS011;9719;49.322;8.536;2023-04-10T08:32:24;1.73;;;1.63;;
19173;SDS011;9719;49.322;8.536;2023-04-10T08:37:26;2.40;;;1.83;;
19173;SDS011;9719;49.322;8.536;2023-04-10T08:42:28;3.05;;;2.05;;
19173;SDS011;9719;49.322;8.536;2023-04-10T08:47:32;1.80;;;1.70;;
19173;SDS011;9719;49.322;8.536;2023-04-10T08:52:37;2.05;;;1.85;;
19173;SDS011;9719;49.322;8.536;2023-04-10T08:57:43;1.88;;;1.42;;
19173;SDS011;9719;49.322;8.536;2023-04-10T09:02:47;3.28;;;1.98;;
19173;SDS011;9719;49.322;8.536;2023-04-10T09:07:54;2.28;;;2.03;;
19173;SDS011;9719;49.322;8.536;2023-04-10T09:12:55;2.08;;;1.88;;
19173;SDS011;9719;49.322;8.536;2023-04-10T09:17:59;1.55;;;1.40;;
19173;SDS011;9719;49.322;8.536;2023-04-10T09:23:01;1.58;;;1.48;;
19173;SDS011;9719;49.322;8.536;2023-04-10T09:28:20;2.55;;;1.88;;
19173;SDS011;9719;49.322;8.536;2023-04-10T09:33:23;1.73;;;1.63;;
19173;SDS011;9719;49.322;8.536;2023-04-10T09:38:26;1.88;;;1.70;;
19173;SDS011;9719;49.322;8.536;2023-04-10T09:43:28;2.40;;;1.98;;
19173;SDS011;9719;49.322;8.536;2023-04-10T09:48:31;1.38;;;1.30;;
19173;SDS011;9719;49.322;8.536;2023-04-10T09:53:34;1.55;;;1.45;;
19173;SDS011;9719;49.322;8.536;2023-04-10T09:58:48;1.73;;;1.65;;
19173;SDS011;9719;49.322;8.536;2023-04-10T10:03:53;2.10;;;1.63;;
19173;SDS011;9719;49.322;8.536;2023-04-10T10:08:55;1.65;;;1.55;;
19173;SDS011;9719;49.322;8.536;2023-04-10T10:13:58;2.10;;;2.00;;
19173;SDS011;9719;49.322;8.536;2023-04-10T10:19:05;1.67;;;1.58;;
19173;SDS011;9719;49.322;8.536;2023-04-10T10:24:10;2.05;;;1.70;;
19173;SDS011;9719;49.322;8.536;2023-04-10T10:29:14;1.30;;;1.20;;
19173;SDS011;9719;49.322;8.536;2023-04-10T10:34:18;1.50;;;1.35;;
19173;SDS011;9719;49.322;8.536;2023-04-10T10:39:23;1.52;;;1.42;;
19173;SDS011;9719;49.322;8.536;2023-04-10T10:44:33;1.67;;;1.50;;
19173;SDS011;9719;49.322;8.536;2023-04-10T10:49:53;1.83;;;1.55;;
19173;SDS011;9719;49.322;8.536;2023-04-10T10:54:56;1.50;;;1.40;;
19173;SDS011;9719;49.322;8.536;2023-04-10T10:59:57;3.60;;;1.35;;
19173;SDS011;9719;49.322;8.536;2023-04-10T11:05:00;1.80;;;1.42;;
19173;SDS011;9719;49.322;8.536;2023-04-10T11:10:02;1.33;;;1.23;;
19173;SDS011;9719;49.322;8.536;2023-04-10T11:15:05;1.33;;;1.23;;
19173;SDS011;9719;49.322;8.536;2023-04-10T11:20:08;1.17;;;1.15;;
19173;SDS011;9719;49.322;8.536;2023-04-10T11:25:10;1.55;;;1.45;;
19173;SDS011;9719;49.322;8.536;2023-04-10T11:30:31;1.13;;;1.02;;
19173;SDS011;9719;49.322;8.536;2023-04-10T11:35:36;0.90;;;0.90;;
19173;SDS011;9719;49.322;8.536;2023-04-10T11:40:54;1.42;;;1.33;;
19173;SDS011;9719;49.322;8.536;2023-04-10T11:45:58;1.25;;;1.15;;
19173;SDS011;9719;49.322;8.536;2023-04-10T11:51:08;1.23;;;1.05;;
19173;SDS011;9719;49.322;8.536;2023-04-10T11:56:14;1.83;;;1.30;;
19173;SDS011;9719;49.322;8.536;2023-04-10T12:01:18;1.25;;;1.15;;
19173;SDS011;9719;49.322;8.536;2023-04-10T12:06:22;0.95;;;0.95;;
19173;SDS011;9719;49.322;8.536;2023-04-10T12:11:24;1.08;;;0.90;;
19173;SDS011;9719;49.322;8.536;2023-04-10T12:16:27;1.50;;;1.15;;
19173;SDS011;9719;49.322;8.536;2023-04-10T12:21:31;2.05;;;1.15;;
19173;SDS011;9719;49.322;8.536;2023-04-10T12:26:35;1.20;;;1.10;;
19173;SDS011;9719;49.322;8.536;2023-04-10T12:31:37;0.80;;;0.80;;
19173;SDS011;9719;49.322;8.536;2023-04-10T12:36:40;0.70;;;0.70;;
19173;SDS011;9719;49.322;8.536;2023-04-10T12:41:41;1.30;;;1.20;;
19173;SDS011;9719;49.322;8.536;2023-04-10T12:46:43;0.88;;;0.88;;
19173;SDS011;9719;49.322;8.536;2023-04-10T12:51:46;0.77;;;0.77;;
19173;SDS011;9719;49.322;8.536;2023-04-10T12:56:49;1.10;;;1.00;;
19173;SDS011;9719;49.322;8.536;2023-04-10T13:01:52;1.10;;;1.00;;
19173;SDS011;9719;49.322;8.536;2023-04-10T13:06:55;0.70;;;0.70;;
19173;SDS011;9719;49.322;8.536;2023-04-10T13:11:57;0.80;;;0.80;;
19173;SDS011;9719;49.322;8.536;2023-04-10T13:16:59;0.75;;;0.75;;
19173;SDS011;9719;49.322;8.536;2023-04-10T13:22:02;0.73;;;0.73;;
19173;SDS011;9719;49.322;8.536;2023-04-10T13:27:03;0.90;;;0.90;;
19173;SDS011;9719;49.322;8.536;2023-04-10T13:32:05;1.35;;;1.02;;
19173;SDS011;9719;49.322;8.536;2023-04-10T13:37:09;0.63;;;0.63;;
19173;SDS011;9719;49.322;8.536;2023-04-10T13:42:12;0.60;;;0.60;;
19173;SDS011;9719;49.322;8.536;2023-04-10T13:47:13;0.50;;;0.50;;
19173;SDS011;9719;49.322;8.536;2023-04-10T13:52:16;0.57;;;0.57;;
19173;SDS011;9719;49.322;8.536;2023-04-10T13:57:18;0.50;;;0.50;;
19173;SDS011;9719;49.322;8.536;2023-04-10T14:02:20;0.75;;;0.68;;
19173;SDS011;9719;49.322;8.536;2023-04-10T14:07:23;1.10;;;0.75;;
19173;SDS011;9719;49.322;8.536;2023-04-10T14:12:24;0.63;;;0.63;;
19173;SDS011;9719;49.322;8.536;2023-04-10T14:17:26;1.65;;;1.30;;
19173;SDS011;9719;49.322;8.536;2023-04-10T14:22:29;1.17;;;1.17;;
19173;SDS011;9719;49.322;8.536;2023-04-10T14:27:31;0.90;;;0.90;;
19173;SDS011;9719;49.322;8.536;2023-04-10T14:32:33;1.08;;;0.75;;
19173;SDS011;9719;49.322;8.536;2023-04-10T14:37:36;0.77;;;0.77;;
19173;SDS011;9719;49.322;8.536;2023-04-10T14:42:38;0.68;;;0.68;;
19173;SDS011;9719;49.322;8.536;2023-04-10T14:47:40;1.15;;;1.13;;
19173;SDS011;9719;49.322;8.536;2023-04-10T14:52:43;0.60;;;0.60;;
19173;SDS011;9719;49.322;8.536;2023-04-10T14:57:44;0.68;;;0.68;;
19173;SDS011;9719;49.322;8.536;2023-04-10T15:02:46;0.60;;;0.60;;
19173;SDS011;9719;49.322;8.536;2023-04-10T15:07:49;0.80;;;0.80;;
19173;SDS011;9719;49.322;8.536;2023-04-10T15:12:51;0.95;;;0.95;;
19173;SDS011;9719;49.322;8.536;2023-04-10T15:17:52;1.27;;;1.23;;
19173;SDS011;9719;49.322;8.536;2023-04-10T15:22:55;0.80;;;0.80;;
19173;SDS011;9719;49.322;8.536;2023-04-10T15:27:57;1.05;;;0.82;;
19173;SDS011;9719;49.322;8.536;2023-04-10T15:32:59;0.70;;;0.70;;
19173;SDS011;9719;49.322;8.536;2023-04-10T15:38:02;0.60;;;0.60;;
19173;SDS011;9719;49.322;8.536;2023-04-10T15:43:04;0.73;;;0.73;;
19173;SDS011;9719;49.322;8.536;2023-04-10T15:48:06;0.80;;;0.80;;
19173;SDS011;9719;49.322;8.536;2023-04-10T15:53:09;0.75;;;0.75;;
19173;SDS011;9719;49.322;8.536;2023-04-10T15:58:11;0.95;;;0.95;;
19173;SDS011;9719;49.322;8.536;2023-04-10T16:03:12;1.23;;;0.63;;
19173;SDS011;9719;49.322;8.536;2023-04-10T16:08:15;0.82;;;0.80;;
19173;SDS011;9719;49.322;8.536;2023-04-10T16:13:17;0.90;;;0.90;;
19173;SDS011;9719;49.322;8.536;2023-04-10T16:18:19;1.30;;;0.98;;
19173;SDS011;9719;49.322;8.536;2023-04-10T16:23:22;1.38;;;1.23;;
19173;SDS011;9719;49.322;8.536;2023-04-10T16:28:23;0.73;;;0.73;;
19173;SDS011;9719;49.322;8.536;2023-04-10T16:33:25;1.20;;;0.93;;
19173;SDS011;9719;49.322;8.536;2023-04-10T16:38:29;0.70;;;0.70;;
19173;SDS011;9719;49.322;8.536;2023-04-10T16:43:33;1.10;;;0.70;;
19173;SDS011;9719;49.322;8.536;2023-04-10T16:48:35;1.17;;;0.93;;
19173;SDS011;9719;49.322;8.536;2023-04-10T16:53:38;0.60;;;0.60;;
19173;SDS011;9719;49.322;8.536;2023-04-10T16:58:39;0.80;;;0.80;;
19173;SDS011;9719;49.322;8.536;2023-04-10T17:03:41;1.50;;;0.77;;
19173;SDS011;9719;49.322;8.536;2023-04-10T17:08:44;0.70;;;0.70;;
19173;SDS011;9719;49.322;8.536;2023-04-10T17:13:46;0.93;;;0.93;;
19173;SDS011;9719;49.322;8.536;2023-04-10T17:18:48;0.95;;;0.95;;
19173;SDS011;9719;49.322;8.536;2023-04-10T17:23:51;0.85;;;0.85;;
19173;SDS011;9719;49.322;8.536;2023-04-10T17:28:52;1.20;;;0.93;;
19173;SDS011;9719;49.322;8.536;2023-04-10T17:33:54;1.98;;;1.10;;
19173;SDS011;9719;49.322;8.536;2023-04-10T17:38:58;0.90;;;0.90;;
19173;SDS011;9719;49.322;8.536;2023-04-10T17:44:00;1.35;;;1.13;;
19173;SDS011;9719;49.322;8.536;2023-04-10T17:49:04;1.20;;;1.13;;
19173;SDS011;9719;49.322;8.536;2023-04-10T17:54:07;1.15;;;1.08;;
19173;SDS011;9719;49.322;8.536;2023-04-10T17:59:09;1.55;;;1.48;;
19173;SDS011;9719;49.322;8.536;2023-04-10T18:04:11;1.55;;;0.98;;
19173;SDS011;9719;49.322;8.536;2023-04-10T18:09:14;1.38;;;1.27;;
19173;SDS011;9719;49.322;8.536;2023-04-10T18:14:15;0.95;;;0.88;;
19173;SDS011;9719;49.322;8.536;2023-04-10T18:19:17;1.30;;;1.30;;
19173;SDS011;9719;49.322;8.536;2023-04-10T18:24:20;2.40;;;1.40;;
19173;SDS011;9719;49.322;8.536;2023-04-10T18:29:22;1.25;;;1.17;;
19173;SDS011;9719;49.322;8.536;2023-04-10T18:34:25;1.05;;;1.05;;
19173;SDS011;9719;49.322;8.536;2023-04-10T18:39:28;1.23;;;1.15;;
19173;SDS011;9719;49.322;8.536;2023-04-10T18:44:30;1.63;;;1.33;;
19173;SDS011;9719;49.322;8.536;2023-04-10T18:49:32;1.27;;;1.10;;
19173;SDS011;9719;49.322;8.536;2023-04-10T18:54:35;1.52;;;1.42;;
19173;SDS011;9719;49.322;8.536;2023-04-10T18:59:36;1.80;;;1.35;;
19173;SDS011;9719;49.322;8.536;2023-04-10T19:04:38;2.00;;;1.90;;
19173;SDS011;9719;49.322;8.536;2023-04-10T19:09:41;1.52;;;1.52;;
19173;SDS011;9719;49.322;8.536;2023-04-10T19:14:43;1.63;;;1.27;;
19173;SDS011;9719;49.322;8.536;2023-04-10T19:19:45;1.30;;;1.30;;
19173;SDS011;9719;49.322;8.536;2023-04-10T19:24:48;1.42;;;1.35;;
19173;SDS011;9719;49.322;8.536;2023-04-10T19:29:49;1.75;;;1.65;;
19173;SDS011;9719;49.322;8.536;2023-04-10T19:34:51;1.38;;;1.27;;
19173;SDS011;9719;49.322;8.536;2023-04-10T19:39:56;1.83;;;1.73;;
19173;SDS011;9719;49.322;8.536;2023-04-10T19:44:58;1.85;;;1.55;;
19173;SDS011;9719;49.322;8.536;2023-04-10T19:49:59;1.70;;;1.60;;
19173;SDS011;9719;49.322;8.536;2023-04-10T19:55:03;3.00;;;1.20;;
19173;SDS011;9719;49.322;8.536;2023-04-10T20:00:05;2.15;;;1.52;;
19173;SDS011;9719;49.322;8.536;2023-04-10T20:05:08;2.90;;;1.50;;
19173;SDS011;9719;49.322;8.536;2023-04-10T20:10:11;1.30;;;1.10;;
19173;SDS011;9719;49.322;8.536;2023-04-10T20:15:13;3.25;;;1.40;;
19173;SDS011;9719;49.322;8.536;2023-04-10T20:20:15;3.35;;;1.35;;
19173;SDS011;9719;49.322;8.536;2023-04-10T20:25:18;1.45;;;1.35;;
19173;SDS011;9719;49.322;8.536;2023-04-10T20:30:19;1.50;;;1.35;;
19173;SDS011;9719;49.322;8.536;2023-04-10T20:35:21;1.52;;;1.15;;
19173;SDS011;9719;49.322;8.536;2023-04-10T20:40:26;1.45;;;1.45;;
19173;SDS011;9719;49.322;8.536;2023-04-10T20:45:27;1.23;;;1.17;;
19173;SDS011;9719;49.322;8.536;2023-04-10T20:50:29;1.90;;;1.27;;
19173;SDS011;9719;49.322;8.536;2023-04-10T20:55:32;1.33;;;1.23;;
19173;SDS011;9719;49.322;8.536;2023-04-10T21:00:37;1.50;;;1.40;;
19173;SDS011;9719;49.322;8.536;2023-04-10T21:05:40;1.50;;;1.40;;
19173;SDS011;9719;49.322;8.536;2023-04-10T21:10:43;3.35;;;1.58;;
19173;SDS011;9719;49.322;8.536;2023-04-10T21:15:44;1.23;;;1.23;;
19173;SDS011;9719;49.322;8.536;2023-04-10T21:20:48;1.10;;;1.10;;
19173;SDS011;9719;49.322;8.536;2023-04-10T21:25:51;2.05;;;1.45;;
19173;SDS011;9719;49.322;8.536;2023-04-10T21:30:53;0.98;;;0.90;;
19173;SDS011;9719;49.322;8.536;2023-04-10T21:35:54;1.30;;;1.20;;
19173;SDS011;9719;49.322;8.536;2023-04-10T21:40:57;2.05;;;1.35;;
19173;SDS011;9719;49.322;8.536;2023-04-10T21:46:00;1.27;;;1.17;;
19173;SDS011;9719;49.322;8.536;2023-04-10T21:51:01;1.08;;;1.08;;
19173;SDS011;9719;49.322;8.536;2023-04-10T21:56:05;0.98;;;0.98;;
19173;SDS011;9719;49.322;8.536;2023-04-10T22:01:07;0.93;;;0.93;;
19173;SDS011;9719;49.322;8.536;2023-04-10T22:06:09;1.63;;;1.10;;
19173;SDS011;9719;49.322;8.536;2023-04-10T22:11:11;0.88;;;0.88;;
19173;SDS011;9719;49.322;8.536;2023-04-10T22:16:13;1.83;;;1.73;;
19173;SDS011;9719;49.322;8.536;2023-04-10T22:21:15;0.85;;;0.85;;
19173;SDS011;9719;49.322;8.536;2023-04-10T22:26:18;1.08;;;1.08;;
19173;SDS011;9719;49.322;8.536;2023-04-10T22:31:20;1.38;;;1.10;;
19173;SDS011;9719;49.322;8.536;2023-04-10T22:36:21;0.90;;;0.90;;
19173;SDS011;9719;49.322;8.536;2023-04-10T22:41:24;3.10;;;0.82;;
19173;SDS011;9719;49.322;8.536;2023-04-10T22:46:26;0.90;;;0.90;;
19173;SDS011;9719;49.322;8.536;2023-04-10T22:51:28;1.80;;;1.10;;
19173;SDS011;9719;49.322;8.536;2023-04-10T22:56:31;0.85;;;0.85;;
19173;SDS011;9719;49.322;8.536;2023-04-10T23:01:33;1.08;;;1.08;;
19173;SDS011;9719;49.322;8.536;2023-04-10T23:06:35;3.80;;;1.00;;
19173;SDS011;9719;49.322;8.536;2023-04-10T23:11:38;1.13;;;1.13;;
19173;SDS011;9719;49.322;8.536;2023-04-10T23:16:39;1.65;;;1.23;;
19173;SDS011;9719;49.322;8.536;2023-04-10T23:21:42;1.00;;;1.00;;
19173;SDS011;9719;49.322;8.536;2023-04-10T23:26:45;1.33;;;1.23;;
19173;SDS011;9719;49.322;8.536;2023-04-10T23:31:47;1.15;;;1.15;;
19173;SDS011;9719;49.322;8.536;2023-04-10T23:36:49;2.35;;;1.10;;
19173;SDS011;9719;49.322;8.536;2023-04-10T23:41:52;1.50;;;1.40;;
19173;SDS011;9719;49.322;8.536;2023-04-10T23:46:54;1.58;;;1.48;;
19173;SDS011;9719;49.322;8.536;2023-04-10T23:51:56;1.08;;;0.88;;
19173;SDS011;9719;49.322;8.536;2023-04-10T23:56:59;1.70;;;0.98;;
